createdAt,value
2018-08-27T00:00:45.977Z,101303.12
2018-08-27T00:03:14.338Z,101289.22
2018-08-27T00:05:42.722Z,101294.89
2018-08-27T00:08:11.393Z,101299.27
2018-08-27T00:10:39.814Z,101292.74
2018-08-27T00:13:08.207Z,101289.70
2018-08-27T00:15:36.600Z,101286.68
2018-08-27T00:18:04.990Z,101282.77
2018-08-27T00:20:33.366Z,101287.59
2018-08-27T00:23:01.720Z,101288.03
2018-08-27T00:25:30.154Z,101284.54
2018-08-27T00:27:58.497Z,101284.54
2018-08-27T00:30:26.881Z,101279.30
2018-08-27T00:32:55.238Z,101279.30
2018-08-27T00:35:23.617Z,101283.67
2018-08-27T00:37:51.981Z,101279.73
2018-08-27T00:40:20.342Z,101281.47
2018-08-27T00:42:48.762Z,101280.15
2018-08-27T00:45:17.126Z,101275.79
2018-08-27T00:47:45.510Z,101271.46
2018-08-27T00:50:13.869Z,101278.00
2018-08-27T00:52:42.254Z,101278.84
2018-08-27T00:55:10.634Z,101276.67
2018-08-27T00:57:39.013Z,101267.97
2018-08-27T01:00:07.394Z,101270.14
2018-08-27T01:02:35.832Z,101263.18
2018-08-27T01:05:04.210Z,101256.20
2018-08-27T01:07:32.589Z,101252.70
2018-08-27T01:10:00.973Z,101257.09
2018-08-27T01:12:29.366Z,101251.84
2018-08-27T01:14:57.728Z,101250.98
2018-08-27T01:17:26.114Z,101249.24
2018-08-27T01:19:54.502Z,101247.94
2018-08-27T01:22:22.896Z,101244.45
2018-08-27T01:24:51.274Z,101238.78
2018-08-27T01:27:19.653Z,101238.78
2018-08-27T01:29:48.014Z,101230.05
2018-08-27T01:32:21.722Z,101226.13
2018-08-27T01:34:50.082Z,101225.26
2018-08-27T01:37:18.469Z,101224.83
2018-08-27T01:39:46.851Z,101223.51
2018-08-27T01:42:15.246Z,101225.68
2018-08-27T01:44:43.616Z,101223.51
2018-08-27T01:47:12.010Z,101220.91
2018-08-27T01:49:40.424Z,101221.35
2018-08-27T01:52:08.821Z,101219.16
2018-08-27T01:54:37.185Z,101219.18
2018-08-27T01:57:05.588Z,101208.73
2018-08-27T01:59:33.985Z,101208.71
2018-08-27T02:02:02.470Z,101208.73
2018-08-27T02:04:30.846Z,101200.44
2018-08-27T02:06:59.239Z,101201.75
2018-08-27T02:09:27.623Z,101192.16
2018-08-27T02:11:57.766Z,101196.09
2018-08-27T02:14:27.252Z,101188.25
2018-08-27T02:16:55.663Z,101190.00
2018-08-27T02:19:24.514Z,101189.55
2018-08-27T02:21:52.908Z,101181.27
2018-08-27T02:24:21.317Z,101189.11
2018-08-27T02:26:49.716Z,101193.91
2018-08-27T02:29:18.088Z,101195.22
2018-08-27T02:31:46.498Z,101185.20
2018-08-27T02:34:14.871Z,101184.31
2018-08-27T02:36:43.251Z,101179.95
2018-08-27T02:39:13.423Z,101179.55
2018-08-27T02:41:42.086Z,101177.36
2018-08-27T02:44:10.811Z,101173.00
2018-08-27T02:46:39.354Z,101171.27
2018-08-27T02:49:07.738Z,101162.09
2018-08-27T02:51:36.115Z,101163.86
2018-08-27T02:54:04.520Z,101163.44
2018-08-27T02:56:32.899Z,101159.07
2018-08-27T02:59:01.291Z,101152.52
2018-08-27T03:01:29.665Z,101156.01
2018-08-27T03:03:58.071Z,101151.23
2018-08-27T03:06:26.447Z,101146.02
2018-08-27T03:08:54.848Z,101146.88
2018-08-27T03:11:23.222Z,101136.84
2018-08-27T03:13:51.606Z,101133.36
2018-08-27T03:16:20.115Z,101134.68
2018-08-27T03:18:48.832Z,101133.80
2018-08-27T03:21:17.283Z,101136.00
2018-08-27T03:23:45.678Z,101135.99
2018-08-27T03:26:14.045Z,101125.53
2018-08-27T03:28:42.439Z,101122.03
2018-08-27T03:31:10.812Z,101114.63
2018-08-27T03:33:39.211Z,101118.55
2018-08-27T03:36:07.593Z,101104.61
2018-08-27T03:38:35.986Z,101105.47
2018-08-27T03:41:04.404Z,101098.94
2018-08-27T03:43:32.798Z,101102.86
2018-08-27T03:46:01.174Z,101100.70
2018-08-27T03:48:29.613Z,101095.02
2018-08-27T03:50:57.970Z,101100.70
2018-08-27T03:53:27.146Z,101094.16
2018-08-27T03:55:55.513Z,101091.10
2018-08-27T03:58:23.903Z,101088.47
2018-08-27T04:00:52.270Z,101085.00
2018-08-27T04:03:20.654Z,101083.24
2018-08-27T04:05:49.235Z,101081.07
2018-08-27T04:08:17.632Z,101078.88
2018-08-27T04:10:45.998Z,101080.20
2018-08-27T04:13:14.392Z,101073.22
2018-08-27T04:15:42.772Z,101071.47
2018-08-27T04:18:11.190Z,101066.68
2018-08-27T04:20:39.563Z,101055.34
2018-08-27T04:23:07.959Z,101061.44
2018-08-27T04:25:36.339Z,101070.60
2018-08-27T04:28:04.781Z,101064.08
2018-08-27T04:30:33.243Z,101060.16
2018-08-27T04:33:01.635Z,101061.04
2018-08-27T04:35:30.011Z,101058.86
2018-08-27T04:37:58.395Z,101049.71
2018-08-27T04:40:26.786Z,101062.33
2018-08-27T04:42:55.199Z,101057.98
2018-08-27T04:45:23.588Z,101057.97
2018-08-27T04:47:51.964Z,101050.10
2018-08-27T04:50:20.346Z,101047.92
2018-08-27T04:52:48.710Z,101046.17
2018-08-27T04:55:17.093Z,101050.53
2018-08-27T04:57:45.459Z,101042.25
2018-08-27T05:00:22.957Z,101047.89
2018-08-27T05:02:51.327Z,101042.67
2018-08-27T05:05:19.732Z,101032.61
2018-08-27T05:07:48.120Z,101033.91
2018-08-27T05:10:16.535Z,101031.27
2018-08-27T05:12:44.908Z,101029.52
2018-08-27T05:15:13.308Z,101032.98
2018-08-27T05:17:41.687Z,101038.17
2018-08-27T05:20:10.271Z,101025.52
2018-08-27T05:22:38.643Z,101024.16
2018-08-27T05:25:07.039Z,101032.45
2018-08-27T05:27:35.419Z,101032.88
2018-08-27T05:30:03.838Z,101031.55
2018-08-27T05:32:32.214Z,101035.45
2018-08-27T05:35:00.614Z,101038.46
2018-08-27T05:37:28.991Z,101036.71
2018-08-27T05:39:57.387Z,101038.45
2018-08-27T05:42:25.768Z,101034.91
2018-08-27T05:44:54.171Z,101037.09
2018-08-27T05:47:22.547Z,101037.07
2018-08-27T05:49:51.194Z,101026.53
2018-08-27T05:52:19.619Z,101016.02
2018-08-27T05:54:48.096Z,101021.66
2018-08-27T05:57:16.467Z,101014.66
2018-08-27T05:59:44.864Z,101014.17
2018-08-27T06:02:13.235Z,101016.32
2018-08-27T06:04:41.631Z,101011.94
2018-08-27T06:07:09.999Z,101008.39
2018-08-27T06:09:38.440Z,101016.64
2018-08-27T06:12:07.051Z,101008.28
2018-08-27T06:14:35.443Z,101004.31
2018-08-27T06:17:04.216Z,101002.11
2018-08-27T06:19:32.619Z,100999.89
2018-08-27T06:22:01.052Z,101002.93
2018-08-27T06:24:29.415Z,100998.09
2018-08-27T06:26:57.786Z,100985.39
2018-08-27T06:29:26.191Z,100979.66
2018-08-27T06:31:54.566Z,100984.45
2018-08-27T06:34:23.048Z,100981.33
2018-08-27T06:36:51.413Z,100989.13
2018-08-27T06:39:19.818Z,100978.58
2018-08-27T06:41:48.186Z,100982.92
2018-08-27T06:44:16.563Z,100976.30
2018-08-27T06:46:44.956Z,100979.30
2018-08-27T06:49:13.331Z,100972.23
2018-08-27T06:51:41.736Z,100972.17
2018-08-27T06:54:10.115Z,100978.23
2018-08-27T06:56:38.576Z,100975.52
2018-08-27T06:59:06.926Z,100971.93
2018-08-27T07:01:35.321Z,100971.83
2018-08-27T07:04:04.173Z,100967.38
2018-08-27T07:06:32.765Z,100971.20
2018-08-27T07:09:01.140Z,100968.06
2018-08-27T07:11:29.534Z,100963.66
2018-08-27T07:13:57.906Z,100941.72
2018-08-27T07:16:26.307Z,100937.28
2018-08-27T07:18:54.703Z,100926.77
2018-08-27T07:21:23.099Z,100916.20
2018-08-27T07:23:51.473Z,100909.11
2018-08-27T07:26:19.939Z,100901.16
2018-08-27T07:28:48.322Z,100902.86
2018-08-27T07:31:16.719Z,100892.70
2018-08-27T07:33:45.095Z,100894.30
2018-08-27T07:36:13.563Z,100891.52
2018-08-27T07:38:41.894Z,100893.07
2018-08-27T07:41:10.295Z,100893.70
2018-08-27T07:43:38.771Z,100899.53
2018-08-27T07:46:07.114Z,100898.35
2018-08-27T07:48:35.495Z,100894.52
2018-08-27T07:51:03.929Z,100881.09
2018-08-27T07:53:32.292Z,100886.57
2018-08-27T07:56:00.688Z,100878.50
2018-08-27T07:58:29.084Z,100881.89
2018-08-27T08:00:57.474Z,100883.06
2018-08-27T08:03:25.860Z,100883.34
2018-08-27T08:05:54.250Z,100886.31
2018-08-27T08:08:22.626Z,100876.02
2018-08-27T08:10:51.023Z,100884.11
2018-08-27T08:13:19.400Z,100879.58
2018-08-27T08:15:47.798Z,100883.34
2018-08-27T08:18:18.068Z,100878.72
2018-08-27T08:20:46.987Z,100874.50
2018-08-27T08:23:16.078Z,100872.96
2018-08-27T08:25:44.487Z,100872.76
2018-08-27T08:28:12.867Z,100867.28
2018-08-27T08:30:41.263Z,100866.19
2018-08-27T08:33:09.675Z,100862.50
2018-08-27T08:35:38.076Z,100859.19
2018-08-27T08:38:06.467Z,100863.95
2018-08-27T08:40:34.864Z,100862.88
2018-08-27T08:43:03.230Z,100868.27
2018-08-27T08:45:31.610Z,100875.81
2018-08-27T08:48:00.023Z,100871.89
2018-08-27T08:50:28.390Z,100874.53
2018-08-27T08:52:56.786Z,100868.38
2018-08-27T08:55:25.503Z,100863.14
2018-08-27T08:57:53.908Z,100862.79
2018-08-27T09:00:22.280Z,100868.33
2018-08-27T09:02:50.692Z,100871.69
2018-08-27T09:05:19.095Z,100864.22
2018-08-27T09:07:47.499Z,100868.29
2018-08-27T09:10:15.941Z,100865.29
2018-08-27T09:12:44.339Z,100858.78
2018-08-27T09:15:12.713Z,100848.57
2018-08-27T09:17:41.137Z,100843.53
2018-08-27T09:20:10.735Z,100848.17
2018-08-27T09:22:39.446Z,100853.20
2018-08-27T09:25:08.002Z,100849.58
2018-08-27T09:27:36.720Z,100846.13
2018-08-27T09:30:06.142Z,100853.33
2018-08-27T09:32:34.542Z,100848.73
2018-08-27T09:35:03.044Z,100846.44
2018-08-27T09:37:31.718Z,100848.81
2018-08-27T09:40:00.068Z,100839.70
2018-08-27T09:42:28.470Z,100836.51
2018-08-27T09:44:56.841Z,100828.10
2018-08-27T09:47:25.243Z,100825.84
2018-08-27T09:49:53.625Z,100815.09
2018-08-27T09:52:22.242Z,100811.94
2018-08-27T09:54:50.619Z,100816.33
2018-08-27T09:57:19.018Z,100810.61
2018-08-27T09:59:47.403Z,100813.83
2018-08-27T10:02:15.799Z,100820.16
2018-08-27T10:04:44.175Z,100824.05
2018-08-27T10:07:12.907Z,100812.35
2018-08-27T10:09:41.288Z,100799.33
2018-08-27T10:12:09.699Z,100807.96
2018-08-27T10:14:38.075Z,100802.61
2018-08-27T10:17:06.507Z,100803.77
2018-08-27T10:19:34.903Z,100812.90
2018-08-27T10:22:03.347Z,100797.39
2018-08-27T10:24:31.771Z,100808.92
2018-08-27T10:27:00.707Z,100802.78
2018-08-27T10:29:29.079Z,100809.63
2018-08-27T10:31:57.465Z,100800.83
2018-08-27T10:34:25.844Z,100789.37
2018-08-27T10:36:54.248Z,100800.09
2018-08-27T10:39:22.619Z,100795.36
2018-08-27T10:41:51.027Z,100805.69
2018-08-27T10:44:19.401Z,100808.20
2018-08-27T10:46:47.771Z,100809.42
2018-08-27T10:49:16.186Z,100815.56
2018-08-27T10:51:44.554Z,100806.58
2018-08-27T10:54:12.965Z,100813.02
2018-08-27T10:56:41.404Z,100810.60
2018-08-27T10:59:09.800Z,100816.01
2018-08-27T11:01:38.196Z,100816.98
2018-08-27T11:04:06.586Z,100819.16
2018-08-27T11:06:34.955Z,100822.28
2018-08-27T11:09:03.521Z,100836.06
2018-08-27T11:11:31.894Z,100841.80
2018-08-27T11:14:00.289Z,100833.51
2018-08-27T11:16:28.663Z,100842.63
2018-08-27T11:18:57.074Z,100838.10
2018-08-27T11:21:25.456Z,100837.64
2018-08-27T11:23:53.865Z,100853.03
2018-08-27T11:26:22.248Z,100851.20
2018-08-27T11:28:50.666Z,100852.34
2018-08-27T11:31:19.047Z,100849.00
2018-08-27T11:33:47.444Z,100869.51
2018-08-27T11:36:15.810Z,100873.23
2018-08-27T11:38:44.215Z,100875.71
2018-08-27T11:41:12.598Z,100874.55
2018-08-27T11:43:41.060Z,100862.77
2018-08-27T11:46:09.423Z,100880.87
2018-08-27T11:48:37.810Z,100882.27
2018-08-27T11:51:06.250Z,100885.30
2018-08-27T11:53:34.642Z,100882.17
2018-08-27T11:56:03.024Z,100899.05
2018-08-27T11:58:31.564Z,100881.28
2018-08-27T12:01:06.832Z,100893.00
2018-08-27T12:03:35.211Z,100891.61
2018-08-27T12:06:03.586Z,100899.77
2018-08-27T12:08:31.992Z,100898.30
2018-08-27T12:11:00.407Z,100901.63
2018-08-27T12:13:28.794Z,100904.41
2018-08-27T12:15:57.252Z,100906.71
2018-08-27T12:18:25.706Z,100915.30
2018-08-27T12:20:54.074Z,100924.30
2018-08-27T12:23:22.465Z,100922.78
2018-08-27T12:25:50.829Z,100919.64
2018-08-27T12:28:19.225Z,100934.55
2018-08-27T12:30:47.694Z,100932.27
2018-08-27T12:33:16.085Z,100936.54
2018-08-27T12:35:44.586Z,100943.88
2018-08-27T12:38:12.978Z,100940.70
2018-08-27T12:40:41.456Z,100944.14
2018-08-27T12:43:09.782Z,100940.53
2018-08-27T12:45:38.184Z,100943.91
2018-08-27T12:48:06.560Z,100947.66
2018-08-27T12:50:34.959Z,100944.36
2018-08-27T12:53:03.334Z,100944.08
2018-08-27T12:55:31.735Z,100942.92
2018-08-27T12:58:00.187Z,100942.59
2018-08-27T13:00:28.579Z,100940.52
2018-08-27T13:02:56.955Z,100934.51
2018-08-27T13:05:25.343Z,100938.97
2018-08-27T13:07:53.832Z,100935.08
2018-08-27T13:10:22.140Z,100938.20
2018-08-27T13:12:50.595Z,100939.92
2018-08-27T13:15:18.951Z,100941.23
2018-08-27T13:17:47.334Z,100938.20
2018-08-27T13:20:15.758Z,100933.31
2018-08-27T13:22:44.147Z,100938.50
2018-08-27T13:25:12.552Z,100937.94
2018-08-27T13:27:40.931Z,100936.48
2018-08-27T13:30:09.357Z,100927.18
2018-08-27T13:32:37.751Z,100925.75
2018-08-27T13:35:06.172Z,100934.02
2018-08-27T13:37:34.666Z,100929.95
2018-08-27T13:40:03.125Z,100932.47
2018-08-27T13:42:31.483Z,100930.08
2018-08-27T13:44:59.895Z,100930.31
2018-08-27T13:47:28.292Z,100934.02
2018-08-27T13:49:56.707Z,100936.34
2018-08-27T13:52:25.074Z,100932.56
2018-08-27T13:54:53.472Z,100929.69
2018-08-27T13:57:21.848Z,100929.93
2018-08-27T13:59:50.281Z,100930.62
2018-08-27T14:02:18.655Z,100924.39
2018-08-27T14:04:47.148Z,100924.77
2018-08-27T14:07:15.567Z,100929.95
2018-08-27T14:09:43.968Z,100925.48
2018-08-27T14:12:12.367Z,100924.09
2018-08-27T14:14:40.822Z,100913.07
2018-08-27T14:17:09.198Z,100916.92
2018-08-27T14:19:37.637Z,100916.39
2018-08-27T14:22:06.013Z,100920.23
2018-08-27T14:24:34.405Z,100925.81
2018-08-27T14:27:02.770Z,100928.39
2018-08-27T14:29:31.167Z,100929.61
2018-08-27T14:31:59.547Z,100935.63
2018-08-27T14:34:28.002Z,100934.69
2018-08-27T14:36:56.387Z,100930.66
2018-08-27T14:39:24.765Z,100939.38
2018-08-27T14:41:53.171Z,100933.58
2018-08-27T14:44:21.562Z,100935.36
2018-08-27T14:46:49.959Z,100936.70
2018-08-27T14:49:18.433Z,100936.23
2018-08-27T14:51:46.826Z,100938.84
2018-08-27T14:54:15.199Z,100938.83
2018-08-27T14:56:43.614Z,100935.75
2018-08-27T14:59:12.394Z,100930.92
2018-08-27T15:01:40.795Z,100924.10
2018-08-27T15:04:09.172Z,100924.38
2018-08-27T15:06:37.564Z,100919.41
2018-08-27T15:09:06.986Z,100921.86
2018-08-27T15:11:35.392Z,100912.05
2018-08-27T15:14:03.763Z,100910.08
2018-08-27T15:16:32.189Z,100906.03
2018-08-27T15:19:00.579Z,100901.97
2018-08-27T15:21:28.979Z,100900.56
2018-08-27T15:23:57.455Z,100902.23
2018-08-27T15:26:25.850Z,100902.05
2018-08-27T15:28:54.228Z,100901.91
2018-08-27T15:31:22.631Z,100893.94
2018-08-27T15:33:51.007Z,100898.73
2018-08-27T15:36:19.405Z,100897.32
2018-08-27T15:38:47.799Z,100900.85
2018-08-27T15:41:16.548Z,100897.29
2018-08-27T15:43:44.998Z,100889.84
2018-08-27T15:46:18.711Z,100901.63
2018-08-27T15:48:47.091Z,100908.22
2018-08-27T15:51:15.533Z,100910.39
2018-08-27T15:53:43.967Z,100910.39
2018-08-27T15:56:12.383Z,100913.41
2018-08-27T15:58:40.812Z,100916.38
2018-08-27T16:01:12.488Z,100916.75
2018-08-27T16:03:41.457Z,100916.67
2018-08-27T16:06:10.780Z,100910.41
2018-08-27T16:08:39.169Z,100912.61
2018-08-27T16:11:07.574Z,100914.37
2018-08-27T16:13:36.411Z,100919.19
2018-08-27T16:16:04.935Z,100917.00
2018-08-27T16:18:33.326Z,100919.77
2018-08-27T16:21:01.755Z,100929.09
2018-08-27T16:23:30.260Z,100925.25
2018-08-27T16:25:58.751Z,100916.56
2018-08-27T16:28:27.143Z,100914.07
2018-08-27T16:30:55.547Z,100910.69
2018-08-27T16:33:23.927Z,100913.44
2018-08-27T16:35:52.328Z,100906.09
2018-08-27T16:38:20.818Z,100902.20
2018-08-27T16:40:49.234Z,100896.55
2018-08-27T16:43:17.729Z,100901.86
2018-08-27T16:45:46.151Z,100898.76
2018-08-27T16:48:14.539Z,100901.86
2018-08-27T16:50:42.915Z,100897.92
2018-08-27T16:53:11.309Z,100868.74
2018-08-27T16:55:39.678Z,100887.17
2018-08-27T16:58:08.084Z,100885.28
2018-08-27T17:00:36.458Z,100894.09
2018-08-27T17:03:04.912Z,100890.13
2018-08-27T17:05:33.291Z,100898.93
2018-08-27T17:08:01.693Z,100894.60
2018-08-27T17:10:30.169Z,100897.33
2018-08-27T17:12:58.550Z,100890.82
2018-08-27T17:15:26.935Z,100882.53
2018-08-27T17:17:55.362Z,100893.59
2018-08-27T17:20:23.729Z,100894.60
2018-08-27T17:22:52.126Z,100902.14
2018-08-27T17:25:20.510Z,100902.19
2018-08-27T17:27:48.912Z,100899.61
2018-08-27T17:30:17.291Z,100898.78
2018-08-27T17:32:45.728Z,100913.82
2018-08-27T17:35:14.114Z,100909.45
2018-08-27T17:37:42.529Z,100916.56
2018-08-27T17:40:11.002Z,100917.51
2018-08-27T17:42:39.399Z,100922.34
2018-08-27T17:45:08.078Z,100928.08
2018-08-27T17:47:36.487Z,100923.28
2018-08-27T17:50:04.893Z,100925.47
2018-08-27T17:52:33.298Z,100938.22
2018-08-27T17:55:01.674Z,100943.97
2018-08-27T17:57:30.079Z,100951.02
2018-08-27T17:59:58.482Z,100961.98
2018-08-27T18:02:26.962Z,100973.45
2018-08-27T18:04:55.423Z,100977.86
2018-08-27T18:07:23.778Z,100986.23
2018-08-27T18:09:52.163Z,100984.91
2018-08-27T18:12:20.601Z,100994.62
2018-08-27T18:14:48.999Z,101007.80
2018-08-27T18:17:17.489Z,101025.79
2018-08-27T18:19:46.012Z,101035.52
2018-08-27T18:22:14.416Z,101061.21
2018-08-27T18:24:42.795Z,101048.91
2018-08-27T18:27:11.199Z,101058.98
2018-08-27T18:29:39.576Z,101063.30
2018-08-27T18:32:07.975Z,101073.69
2018-08-27T18:34:36.388Z,101072.71
2018-08-27T18:37:04.779Z,101084.41
2018-08-27T18:39:33.146Z,101106.60
2018-08-27T18:42:01.552Z,101114.30
2018-08-27T18:44:29.970Z,101113.17
2018-08-27T18:46:58.347Z,101116.85
2018-08-27T18:49:26.778Z,101120.03
2018-08-27T18:51:55.161Z,101128.05
2018-08-27T18:54:23.563Z,101121.16
2018-08-27T18:56:51.946Z,101124.29
2018-08-27T18:59:20.379Z,101123.95
2018-08-27T19:01:48.770Z,101132.36
2018-08-27T19:04:17.172Z,101140.27
2018-08-27T19:06:45.660Z,101137.27
2018-08-27T19:09:13.971Z,101148.73
2018-08-27T19:11:42.379Z,101142.63
2018-08-27T19:14:10.774Z,101148.80
2018-08-27T19:16:39.151Z,101155.39
2018-08-27T19:19:07.610Z,101140.55
2018-08-27T19:21:35.987Z,101127.88
2018-08-27T19:24:04.408Z,101122.63
2018-08-27T19:26:32.808Z,101126.12
2018-08-27T19:29:01.303Z,101128.33
2018-08-27T19:31:29.615Z,101126.56
2018-08-27T19:33:58.019Z,101130.50
2018-08-27T19:36:26.487Z,101133.98
2018-08-27T19:38:54.836Z,101135.75
2018-08-27T19:41:23.218Z,101141.00
2018-08-27T19:43:51.615Z,101148.89
2018-08-27T19:46:20.081Z,101151.10
2018-08-27T19:48:48.428Z,101155.48
2018-08-27T19:51:16.846Z,101155.96
2018-08-27T19:53:45.269Z,101160.34
2018-08-27T19:56:13.648Z,101159.05
2018-08-27T19:58:42.067Z,101158.19
2018-08-27T20:01:10.535Z,101159.08
2018-08-27T20:03:38.947Z,101163.03
2018-08-27T20:06:07.342Z,101161.34
2018-08-27T20:08:35.784Z,101171.82
2018-08-27T20:11:04.286Z,101170.09
2018-08-27T20:13:32.691Z,101169.64
2018-08-27T20:16:01.071Z,101173.16
2018-08-27T20:18:29.491Z,101176.66
2018-08-27T20:20:57.872Z,101181.94
2018-08-27T20:23:26.276Z,101183.27
2018-08-27T20:25:54.730Z,101179.33
2018-08-27T20:28:23.074Z,101187.22
2018-08-27T20:30:51.447Z,101189.83
2018-08-27T20:33:19.834Z,101194.66
2018-08-27T20:35:48.216Z,101194.23
2018-08-27T20:38:16.623Z,101193.78
2018-08-27T20:40:44.990Z,101195.54
2018-08-27T20:43:13.555Z,101194.23
2018-08-27T20:45:42.169Z,101200.36
2018-08-27T20:48:10.572Z,101206.91
2018-08-27T20:50:39.115Z,101207.80
2018-08-27T20:53:07.487Z,101212.59
2018-08-27T20:55:35.883Z,101206.92
2018-08-27T20:58:04.262Z,101210.88
2018-08-27T21:00:32.667Z,101215.69
2018-08-27T21:03:01.066Z,101222.23
2018-08-27T21:05:29.473Z,101216.56
2018-08-27T21:07:59.648Z,101226.20
2018-08-27T21:10:28.088Z,101235.80
2018-08-27T21:12:56.471Z,101228.81
2018-08-27T21:15:24.866Z,101234.06
2018-08-27T21:17:54.138Z,101230.59
2018-08-27T21:20:23.461Z,101246.73
2018-08-27T21:22:51.871Z,101240.63
2018-08-27T21:25:20.418Z,101247.19
2018-08-27T21:27:49.873Z,101250.67
2018-08-27T21:30:19.638Z,101247.64
2018-08-27T21:32:48.014Z,101252.00
2018-08-27T21:35:16.411Z,101248.97
2018-08-27T21:37:44.844Z,101252.88
2018-08-27T21:40:13.264Z,101269.03
2018-08-27T21:42:41.659Z,101265.56
2018-08-27T21:45:10.053Z,101269.91
2018-08-27T21:47:38.432Z,101269.03
2018-08-27T21:50:06.846Z,101270.35
2018-08-27T21:52:35.228Z,101269.03
2018-08-27T21:55:03.635Z,101268.60
2018-08-27T21:57:32.018Z,101269.91
2018-08-27T22:00:00.420Z,101275.14
2018-08-27T22:02:33.997Z,101265.95
2018-08-27T22:05:02.399Z,101272.08
2018-08-27T22:07:30.774Z,101276.00
2018-08-27T22:09:59.171Z,101264.20
2018-08-27T22:12:27.545Z,101267.26
2018-08-27T22:14:55.938Z,101274.66
2018-08-27T22:17:24.318Z,101274.66
2018-08-27T22:19:52.740Z,101273.77
2018-08-27T22:22:21.109Z,101273.73
2018-08-27T22:24:49.505Z,101276.36
2018-08-27T22:27:17.882Z,101285.06
2018-08-27T22:29:46.290Z,101286.38
2018-08-27T22:32:14.662Z,101285.03
2018-08-27T22:34:43.053Z,101288.97
2018-08-27T22:37:11.527Z,101296.80
2018-08-27T22:39:39.917Z,101298.97
2018-08-27T22:42:08.302Z,101298.97
2018-08-27T22:44:36.697Z,101302.00
2018-08-27T22:47:05.087Z,101304.61
2018-08-27T22:49:33.469Z,101308.95
2018-08-27T22:52:01.891Z,101306.78
2018-08-27T22:54:30.269Z,101310.66
2018-08-27T22:56:58.661Z,101305.43
2018-08-27T22:59:27.040Z,101307.16
2018-08-27T23:01:55.438Z,101312.81
2018-08-27T23:04:29.186Z,101312.39
2018-08-27T23:06:57.898Z,101314.12
2018-08-27T23:09:26.299Z,101313.67
2018-08-27T23:11:54.698Z,101319.74
2018-08-27T23:14:23.071Z,101319.76
2018-08-27T23:16:51.466Z,101322.79
2018-08-27T23:19:19.875Z,101328.45
2018-08-27T23:21:48.267Z,101330.62
2018-08-27T23:24:16.646Z,101328.86
2018-08-27T23:26:45.043Z,101327.53
2018-08-27T23:29:13.422Z,101340.17
2018-08-27T23:31:41.917Z,101334.06
2018-08-27T23:34:10.298Z,101337.98
2018-08-27T23:36:38.711Z,101341.87
2018-08-27T23:39:07.427Z,101345.80
2018-08-27T23:41:35.839Z,101349.28
2018-08-27T23:44:04.215Z,101351.45
2018-08-27T23:46:32.619Z,101343.59
2018-08-27T23:49:01.003Z,101349.23
2018-08-27T23:51:29.411Z,101352.72
2018-08-27T23:53:57.795Z,101350.96
2018-08-27T23:56:26.203Z,101344.82
2018-08-27T23:58:54.574Z,101340.05
